createdAt,value
2023-05-11T00:01:43.122Z,14.20
2023-05-11T00:04:12.601Z,14.20
2023-05-11T00:06:40.627Z,14.20
2023-05-11T00:09:09.567Z,14.20
2023-05-11T00:11:37.758Z,14.10
2023-05-11T00:14:05.755Z,14.10
2023-05-11T00:16:33.843Z,14.10
2023-05-11T00:19:01.874Z,14.00
2023-05-11T00:21:32.200Z,14.00
2023-05-11T00:24:00.168Z,14.00
2023-05-11T00:26:28.128Z,14.00
2023-05-11T00:28:56.247Z,13.90
2023-05-11T00:31:24.293Z,13.90
2023-05-11T00:33:54.194Z,13.90
2023-05-11T00:36:22.287Z,13.90
2023-05-11T00:38:52.991Z,13.80
2023-05-11T00:41:21.596Z,13.80
2023-05-11T00:43:49.567Z,13.80
2023-05-11T00:46:17.621Z,13.70
2023-05-11T00:48:45.766Z,13.70
2023-05-11T00:51:14.673Z,13.70
2023-05-11T00:53:42.649Z,13.70
2023-05-11T00:56:12.031Z,13.70
2023-05-11T00:58:40.247Z,13.70
2023-05-11T01:01:09.168Z,13.70
2023-05-11T01:03:37.180Z,13.70
2023-05-11T01:06:11.602Z,13.60
2023-05-11T01:08:44.499Z,13.60
2023-05-11T01:11:21.510Z,13.60
2023-05-11T01:13:53.444Z,13.60
2023-05-11T01:16:24.612Z,13.60
2023-05-11T01:18:57.259Z,13.60
2023-05-11T01:21:26.626Z,13.60
2023-05-11T01:24:27.149Z,13.50
2023-05-11T01:27:21.295Z,13.50
2023-05-11T01:30:21.003Z,13.50
2023-05-11T01:32:50.585Z,13.60
2023-05-11T01:35:22.042Z,13.50
2023-05-11T01:37:53.010Z,13.50
2023-05-11T01:40:25.847Z,13.50
2023-05-11T01:43:02.318Z,13.50
2023-05-11T01:45:32.679Z,13.50
2023-05-11T01:48:04.648Z,13.50
2023-05-11T01:50:33.668Z,13.50
2023-05-11T01:53:03.921Z,13.50
2023-05-11T01:55:35.352Z,13.50
2023-05-11T01:58:05.635Z,13.50
2023-05-11T02:00:35.129Z,13.50
2023-05-11T02:03:07.647Z,13.50
2023-05-11T02:05:36.320Z,13.50
2023-05-11T02:08:06.981Z,13.50
2023-05-11T02:10:36.542Z,13.40
2023-05-11T02:13:05.916Z,13.40
2023-05-11T02:15:38.556Z,13.40
2023-05-11T02:18:09.358Z,13.40
2023-05-11T02:20:39.523Z,13.30
2023-05-11T02:23:10.285Z,13.40
2023-05-11T02:25:39.260Z,13.40
2023-05-11T02:28:07.398Z,13.30
2023-05-11T02:30:47.938Z,13.40
2023-05-11T02:33:21.484Z,13.30
2023-05-11T02:35:51.422Z,13.40
2023-05-11T02:38:20.513Z,13.30
2023-05-11T02:40:51.459Z,13.30
2023-05-11T02:43:23.645Z,13.30
2023-05-11T02:45:55.179Z,13.30
2023-05-11T02:48:28.520Z,13.30
2023-05-11T02:50:58.013Z,13.50
2023-05-11T02:53:30.624Z,13.40
2023-05-11T02:55:59.855Z,13.30
2023-05-11T02:58:28.274Z,13.40
2023-05-11T03:00:56.662Z,13.30
2023-05-11T03:03:26.125Z,13.30
2023-05-11T03:05:54.346Z,13.30
2023-05-11T03:08:22.284Z,13.30
2023-05-11T03:10:51.408Z,13.30
2023-05-11T03:13:20.170Z,13.30
2023-05-11T03:15:48.832Z,13.30
2023-05-11T03:18:17.504Z,13.30
2023-05-11T03:20:48.407Z,13.30
2023-05-11T03:23:17.872Z,13.30
2023-05-11T03:25:46.584Z,13.30
2023-05-11T03:28:15.817Z,13.30
2023-05-11T03:30:47.105Z,13.30
2023-05-11T03:33:15.245Z,13.20
2023-05-11T03:35:45.048Z,13.30
2023-05-11T03:38:16.076Z,13.20
2023-05-11T03:40:45.536Z,13.20
2023-05-11T03:43:17.690Z,13.20
2023-05-11T03:45:47.895Z,13.30
2023-05-11T03:48:17.048Z,13.20
2023-05-11T03:50:45.640Z,13.30
2023-05-11T03:53:16.158Z,13.30
2023-05-11T03:55:44.261Z,13.20
2023-05-11T03:58:12.392Z,13.20
2023-05-11T04:00:40.958Z,13.30
2023-05-11T04:03:09.734Z,13.20
2023-05-11T04:05:38.014Z,13.30
2023-05-11T04:08:06.960Z,13.20
2023-05-11T04:10:36.267Z,13.20
2023-05-11T04:13:04.106Z,13.30
2023-05-11T04:15:32.085Z,13.30
2023-05-11T04:18:00.154Z,13.30
2023-05-11T04:20:28.202Z,13.30
2023-05-11T04:22:56.162Z,13.30
2023-05-11T04:25:24.124Z,13.30
2023-05-11T04:27:53.365Z,13.30
2023-05-11T04:30:21.780Z,13.40
2023-05-11T04:32:50.004Z,13.40
2023-05-11T04:35:18.367Z,13.40
2023-05-11T04:37:46.316Z,13.40
2023-05-11T04:40:14.658Z,13.40
2023-05-11T04:42:42.700Z,13.40
2023-05-11T04:45:12.916Z,13.40
2023-05-11T04:47:40.970Z,13.50
2023-05-11T04:50:09.484Z,13.60
2023-05-11T04:52:37.570Z,13.60
2023-05-11T04:55:06.222Z,13.70
2023-05-11T04:57:34.754Z,13.80
2023-05-11T05:00:04.116Z,13.80
2023-05-11T05:02:33.443Z,13.80
2023-05-11T05:05:01.610Z,13.90
2023-05-11T05:07:29.592Z,13.90
2023-05-11T05:09:57.667Z,13.90
2023-05-11T05:12:25.623Z,13.90
2023-05-11T05:14:53.509Z,13.90
2023-05-11T05:17:21.552Z,13.80
2023-05-11T05:19:51.454Z,13.80
2023-05-11T05:22:19.362Z,13.80
2023-05-11T05:24:47.334Z,13.80
2023-05-11T05:27:15.267Z,13.80
2023-05-11T05:29:44.436Z,13.80
2023-05-11T05:32:12.442Z,13.70
2023-05-11T05:34:40.512Z,13.70
2023-05-11T05:37:09.840Z,13.70
2023-05-11T05:39:37.755Z,13.60
2023-05-11T05:42:06.253Z,13.60
2023-05-11T05:44:34.250Z,13.60
2023-05-11T05:47:02.284Z,13.60
2023-05-11T05:49:30.492Z,13.60
2023-05-11T05:51:59.193Z,13.60
2023-05-11T05:54:28.937Z,13.60
2023-05-11T05:56:57.223Z,13.70
2023-05-11T05:59:52.890Z,13.70
2023-05-11T06:02:20.977Z,13.70
2023-05-11T06:04:57.098Z,13.70
2023-05-11T06:07:26.147Z,13.70
2023-05-11T06:09:58.933Z,13.70
2023-05-11T06:12:27.269Z,13.70
2023-05-11T06:14:56.257Z,13.70
2023-05-11T06:17:24.413Z,13.70
2023-05-11T06:19:52.755Z,13.70
2023-05-11T06:22:20.787Z,13.70
2023-05-11T06:24:48.798Z,13.70
2023-05-11T06:27:18.571Z,13.80
2023-05-11T06:29:46.875Z,13.80
2023-05-11T06:32:15.119Z,13.90
2023-05-11T06:34:43.280Z,14.00
2023-05-11T06:37:11.497Z,14.10
2023-05-11T06:39:40.468Z,14.20
2023-05-11T06:42:08.444Z,14.30
2023-05-11T06:44:38.621Z,14.40
2023-05-11T06:47:08.120Z,14.50
2023-05-11T06:49:36.306Z,14.50
2023-05-11T06:52:04.584Z,14.50
2023-05-11T06:54:32.735Z,14.50
2023-05-11T06:57:00.757Z,14.50
2023-05-11T06:59:28.979Z,14.40
2023-05-11T07:01:58.829Z,14.40
2023-05-11T07:04:26.898Z,14.30
2023-05-11T07:06:55.284Z,14.30
2023-05-11T07:09:23.435Z,14.40
2023-05-11T07:12:00.686Z,14.50
2023-05-11T07:14:28.585Z,14.60
2023-05-11T07:16:59.993Z,14.60
2023-05-11T07:19:27.935Z,14.70
2023-05-11T07:21:55.992Z,14.80
2023-05-11T07:24:24.047Z,14.80
2023-05-11T07:27:41.866Z,14.70
2023-05-11T07:30:13.857Z,14.60
2023-05-11T07:32:44.357Z,14.60
2023-05-11T07:35:12.458Z,14.50
2023-05-11T07:37:40.603Z,14.60
2023-05-11T07:40:09.696Z,14.70
2023-05-11T07:42:37.952Z,14.80
2023-05-11T07:45:06.953Z,14.80
2023-05-11T07:47:36.883Z,14.80
2023-05-11T07:50:23.875Z,14.70
2023-05-11T07:52:55.326Z,14.80
2023-05-11T07:55:25.069Z,14.60
2023-05-11T07:57:53.281Z,14.50
2023-05-11T08:00:22.052Z,14.60
2023-05-11T08:02:50.592Z,14.60
2023-05-11T08:05:19.757Z,14.50
2023-05-11T08:07:49.695Z,14.40
2023-05-11T08:10:18.258Z,14.50
2023-05-11T08:12:46.358Z,14.40
2023-05-11T08:15:14.356Z,14.40
2023-05-11T08:17:43.223Z,14.40
2023-05-11T08:20:12.092Z,14.50
2023-05-11T08:22:40.079Z,14.50
2023-05-11T08:25:10.330Z,14.50
2023-05-11T08:27:38.249Z,14.50
2023-05-11T08:30:09.452Z,14.50
2023-05-11T08:32:57.290Z,14.50
2023-05-11T08:35:26.688Z,14.50
2023-05-11T08:37:54.571Z,14.60
2023-05-11T08:40:27.661Z,14.70
2023-05-11T08:42:57.344Z,14.80
2023-05-11T08:45:27.369Z,14.90
2023-05-11T08:47:55.675Z,15.10
2023-05-11T08:50:23.897Z,15.00
2023-05-11T08:52:51.976Z,15.10
2023-05-11T08:55:20.368Z,15.10
2023-05-11T08:57:51.049Z,15.30
2023-05-11T09:00:19.555Z,15.30
2023-05-11T09:02:48.260Z,15.40
2023-05-11T09:05:17.080Z,15.40
2023-05-11T09:07:48.466Z,15.40
2023-05-11T09:10:16.696Z,15.40
2023-05-11T09:12:44.700Z,15.50
2023-05-11T09:15:14.511Z,15.50
2023-05-11T09:17:42.653Z,15.50
2023-05-11T09:20:11.749Z,15.40
2023-05-11T09:22:44.214Z,15.30
2023-05-11T09:25:13.825Z,15.20
2023-05-11T09:27:45.736Z,15.10
2023-05-11T09:32:50.494Z,15.10
2023-05-11T09:35:23.284Z,15.10
2023-05-11T09:38:02.383Z,15.00
2023-05-11T09:40:34.158Z,15.20
2023-05-11T09:43:03.503Z,15.40
2023-05-11T09:45:40.546Z,15.50
2023-05-11T09:48:25.801Z,15.40
2023-05-11T09:51:01.322Z,15.40
2023-05-11T09:53:36.671Z,15.40
2023-05-11T09:56:08.021Z,15.40
2023-05-11T10:02:29.744Z,15.10
2023-05-11T10:04:59.754Z,14.90
2023-05-11T10:11:35.474Z,15.10
2023-05-11T10:14:04.224Z,14.90
2023-05-11T10:16:33.133Z,14.90
2023-05-11T10:19:06.795Z,14.90
2023-05-11T10:21:35.912Z,15.00
2023-05-11T10:24:04.963Z,15.00
2023-05-11T10:26:37.344Z,15.10
2023-05-11T10:29:05.876Z,15.10
2023-05-11T10:31:35.082Z,15.20
2023-05-11T10:34:05.269Z,15.20
2023-05-11T10:36:33.494Z,15.20
2023-05-11T10:39:01.601Z,15.20
2023-05-11T10:41:48.971Z,15.20
2023-05-11T10:44:40.569Z,15.20
2023-05-11T10:47:40.884Z,15.10
2023-05-11T10:50:24.442Z,15.10
2023-05-11T10:53:09.991Z,15.00
2023-05-11T10:55:56.043Z,15.00
2023-05-11T10:58:36.593Z,15.00
2023-05-11T11:01:32.227Z,15.10
2023-05-11T11:04:03.006Z,15.00
2023-05-11T11:06:33.518Z,15.20
2023-05-11T11:09:04.325Z,15.20
2023-05-11T11:11:34.077Z,15.30
2023-05-11T11:14:06.029Z,15.30
2023-05-11T11:16:34.854Z,15.40
2023-05-11T11:19:40.030Z,15.40
2023-05-11T11:22:46.853Z,15.40
2023-05-11T11:25:16.514Z,15.50
2023-05-11T11:27:58.994Z,15.50
2023-05-11T11:30:29.039Z,15.50
2023-05-11T11:33:13.114Z,15.50
2023-05-11T11:35:48.739Z,15.50
2023-05-11T11:38:19.489Z,15.30
2023-05-11T11:40:51.759Z,15.20
2023-05-11T11:43:22.317Z,15.10
2023-05-11T11:45:54.741Z,15.10
2023-05-11T11:48:24.445Z,15.10
2023-05-11T11:51:04.363Z,15.00
2023-05-11T11:54:07.149Z,14.90
2023-05-11T11:56:43.843Z,14.90
2023-05-11T11:59:15.545Z,14.90
2023-05-11T12:01:46.597Z,15.00
2023-05-11T12:04:42.531Z,15.00
2023-05-11T12:07:15.537Z,15.00
2023-05-11T12:09:47.544Z,15.10
2023-05-11T12:12:19.158Z,15.10
2023-05-11T12:14:50.010Z,15.20
2023-05-11T12:17:26.195Z,15.20
2023-05-11T12:19:54.656Z,15.10
2023-05-11T12:22:26.679Z,15.10
2023-05-11T12:25:00.488Z,15.00
2023-05-11T12:27:29.120Z,14.80
2023-05-11T12:29:58.653Z,14.60
2023-05-11T12:32:28.823Z,14.60
2023-05-11T12:35:02.770Z,14.50
2023-05-11T12:37:31.926Z,14.30
2023-05-11T12:40:02.231Z,14.30
2023-05-11T12:42:31.479Z,14.40
2023-05-11T12:45:01.282Z,14.20
2023-05-11T12:47:29.921Z,14.30
2023-05-11T12:49:57.986Z,14.10
2023-05-11T12:52:26.159Z,14.10
2023-05-11T12:55:00.260Z,14.20
2023-05-11T12:57:31.817Z,14.20
2023-05-11T13:00:12.134Z,14.40
2023-05-11T13:02:50.336Z,14.50
2023-05-11T13:05:21.005Z,14.60
2023-05-11T13:07:57.849Z,14.70
2023-05-11T13:10:27.038Z,14.80
2023-05-11T13:12:59.467Z,14.90
2023-05-11T13:15:28.941Z,15.10
2023-05-11T13:17:59.157Z,15.40
2023-05-11T13:20:29.587Z,15.50
2023-05-11T13:23:09.040Z,15.70
2023-05-11T13:25:53.391Z,15.80
2023-05-11T13:28:25.010Z,16.00
2023-05-11T13:30:53.825Z,16.20
2023-05-11T13:33:22.341Z,16.20
2023-05-11T13:35:52.605Z,16.40
2023-05-11T13:38:20.566Z,16.40
2023-05-11T13:40:48.503Z,16.40
2023-05-11T13:43:16.503Z,16.40
2023-05-11T13:45:49.528Z,16.60
2023-05-11T13:48:17.795Z,16.50
2023-05-11T13:50:45.984Z,16.50
2023-05-11T13:53:14.042Z,16.40
2023-05-11T13:55:43.151Z,16.30
2023-05-11T13:58:11.350Z,16.20
2023-05-11T14:00:40.189Z,15.90
2023-05-11T14:03:09.720Z,15.90
2023-05-11T14:05:39.350Z,15.70
2023-05-11T14:08:07.493Z,15.60
2023-05-11T14:10:35.598Z,15.50
2023-05-11T14:13:03.869Z,15.40
2023-05-11T14:15:31.751Z,15.40
2023-05-11T14:18:00.446Z,15.30
2023-05-11T14:20:29.995Z,15.20
2023-05-11T14:22:58.194Z,15.20
2023-05-11T14:25:26.270Z,15.20
2023-05-11T14:27:55.540Z,15.20
2023-05-11T14:30:24.123Z,15.30
2023-05-11T14:32:53.429Z,15.40
2023-05-11T14:35:22.237Z,15.50
2023-05-11T14:37:51.795Z,15.30
2023-05-11T14:40:19.762Z,15.40
2023-05-11T14:42:48.181Z,15.40
2023-05-11T14:45:16.346Z,15.40
2023-05-11T14:47:45.812Z,15.40
2023-05-11T14:50:13.980Z,15.50
2023-05-11T14:52:42.144Z,15.50
2023-05-11T14:55:12.053Z,15.50
2023-05-11T14:57:40.356Z,15.50
2023-05-11T15:00:09.667Z,15.50
2023-05-11T15:02:41.988Z,15.20
2023-05-11T15:05:11.374Z,15.20
2023-05-11T15:07:39.837Z,15.00
2023-05-11T15:10:09.021Z,14.90
2023-05-11T15:12:39.264Z,14.90
2023-05-11T15:15:09.352Z,14.90
2023-05-11T15:17:37.922Z,14.80
2023-05-11T15:20:09.870Z,14.80
2023-05-11T15:22:38.045Z,14.80
2023-05-11T15:25:07.018Z,14.80
2023-05-11T15:27:35.098Z,14.80
2023-05-11T15:30:05.224Z,14.80
2023-05-11T15:32:34.511Z,14.70
2023-05-11T15:35:03.031Z,14.70
2023-05-11T15:37:31.435Z,14.60
2023-05-11T15:39:59.790Z,14.60
2023-05-11T15:42:30.205Z,14.50
2023-05-11T15:45:01.180Z,14.50
2023-05-11T15:47:30.870Z,14.40
2023-05-11T15:49:59.327Z,14.30
2023-05-11T15:52:27.654Z,14.20
2023-05-11T15:54:56.106Z,14.20
2023-05-11T15:57:24.547Z,14.00
2023-05-11T15:59:58.924Z,13.90
2023-05-11T16:02:38.588Z,13.90
2023-05-11T16:05:18.948Z,13.90
2023-05-11T16:08:16.846Z,13.80
2023-05-11T16:11:05.896Z,13.70
2023-05-11T16:13:35.912Z,13.20
2023-05-11T16:16:09.919Z,13.20
2023-05-11T16:19:00.169Z,12.90
2023-05-11T16:21:47.610Z,12.70
2023-05-11T16:24:44.303Z,12.70
2023-05-11T16:27:48.711Z,12.50
2023-05-11T16:30:27.362Z,12.60
2023-05-11T16:32:55.817Z,12.50
2023-05-11T16:35:25.822Z,12.40
2023-05-11T16:37:56.898Z,12.70
2023-05-11T16:40:25.214Z,12.40
2023-05-11T16:42:53.188Z,12.40
2023-05-11T16:45:21.281Z,12.20
2023-05-11T16:47:49.388Z,12.20
2023-05-11T16:50:18.901Z,12.10
2023-05-11T16:52:48.733Z,12.20
2023-05-11T16:55:17.042Z,12.10
2023-05-11T16:57:45.091Z,12.00
2023-05-11T17:00:14.531Z,11.30
2023-05-11T17:02:42.798Z,11.90
2023-05-11T17:05:13.984Z,11.80
2023-05-11T17:07:46.092Z,11.90
2023-05-11T17:10:15.437Z,11.80
2023-05-11T17:12:46.713Z,11.80
2023-05-11T17:15:14.833Z,11.80
2023-05-11T17:17:42.925Z,11.80
2023-05-11T17:20:11.858Z,11.80
2023-05-11T17:22:39.957Z,11.70
2023-05-11T17:25:11.475Z,12.00
2023-05-11T17:27:41.139Z,11.60
2023-05-11T17:30:10.381Z,11.70
2023-05-11T17:32:38.996Z,11.70
2023-05-11T17:35:15.764Z,11.60
2023-05-11T17:37:50.246Z,11.60
2023-05-11T17:40:19.571Z,11.60
2023-05-11T17:42:49.737Z,11.60
2023-05-11T17:45:18.308Z,11.60
2023-05-11T17:47:49.419Z,11.50
2023-05-11T17:50:17.621Z,11.60
2023-05-11T17:52:47.674Z,11.50
2023-05-11T17:55:18.044Z,11.60
2023-05-11T17:57:51.841Z,11.50
2023-05-11T18:00:25.456Z,11.50
2023-05-11T18:03:02.518Z,11.40
2023-05-11T18:05:47.425Z,11.50
2023-05-11T18:08:20.848Z,11.50
2023-05-11T18:10:49.821Z,11.50
2023-05-11T18:13:21.674Z,11.50
2023-05-11T18:15:51.261Z,11.50
2023-05-11T18:18:19.779Z,11.50
2023-05-11T18:20:47.837Z,11.50
2023-05-11T18:23:21.076Z,11.60
2023-05-11T18:25:49.377Z,11.90
2023-05-11T18:28:17.324Z,11.60
2023-05-11T18:30:45.331Z,11.60
2023-05-11T18:33:14.705Z,11.60
2023-05-11T18:35:43.214Z,11.80
2023-05-11T18:38:17.446Z,11.70
2023-05-11T18:40:47.800Z,11.80
2023-05-11T18:43:27.771Z,11.70
2023-05-11T18:45:57.514Z,11.70
2023-05-11T18:48:26.887Z,11.70
2023-05-11T18:50:57.487Z,11.80
2023-05-11T18:53:32.076Z,11.80
2023-05-11T18:56:00.277Z,11.80
2023-05-11T18:58:28.596Z,11.80
2023-05-11T19:01:13.355Z,11.90
2023-05-11T19:03:47.892Z,11.80
2023-05-11T19:06:19.251Z,11.70
2023-05-11T19:08:51.494Z,12.90
2023-05-11T19:11:23.636Z,11.60
2023-05-11T19:13:52.038Z,11.60
2023-05-11T19:16:20.998Z,12.00
2023-05-11T19:18:50.494Z,11.50
2023-05-11T19:21:18.843Z,11.80
2023-05-11T19:23:48.307Z,11.50
2023-05-11T19:26:16.416Z,11.60
2023-05-11T19:28:44.368Z,11.60
2023-05-11T19:31:12.339Z,11.50
2023-05-11T19:33:40.531Z,11.50
2023-05-11T19:36:09.986Z,11.40
2023-05-11T19:38:38.797Z,11.50
2023-05-11T19:41:06.944Z,11.50
2023-05-11T19:43:35.741Z,11.50
2023-05-11T19:46:04.690Z,11.50
2023-05-11T19:48:32.736Z,11.50
2023-05-11T19:51:01.274Z,11.50
2023-05-11T19:53:30.645Z,11.50
2023-05-11T19:55:58.689Z,11.50
2023-05-11T19:58:26.693Z,11.50
2023-05-11T20:00:55.093Z,11.60
2023-05-11T20:03:23.302Z,11.70
2023-05-11T20:05:51.489Z,11.60
2023-05-11T20:08:19.553Z,11.70
2023-05-11T20:10:48.888Z,11.60
2023-05-11T20:13:17.176Z,11.60
2023-05-11T20:15:45.324Z,11.60
2023-05-11T20:18:13.216Z,11.60
2023-05-11T20:20:41.578Z,11.60
2023-05-11T20:23:09.742Z,11.50
2023-05-11T20:25:40.180Z,11.60
2023-05-11T20:28:09.735Z,11.60
2023-05-11T20:30:38.290Z,11.60
2023-05-11T20:35:37.168Z,11.60
2023-05-11T20:38:05.154Z,11.60
2023-05-11T20:40:33.234Z,11.60
2023-05-11T20:43:01.312Z,11.60
2023-05-11T20:45:30.760Z,11.60
2023-05-11T20:47:59.079Z,11.70
2023-05-11T20:50:27.201Z,11.60
2023-05-11T20:52:55.600Z,11.70
2023-05-11T20:55:23.985Z,11.60
2023-05-11T20:57:52.047Z,11.60
2023-05-11T21:00:20.800Z,11.60
2023-05-11T21:02:50.519Z,11.70
2023-05-11T21:05:19.172Z,11.60
2023-05-11T21:07:47.215Z,11.60
2023-05-11T21:10:15.211Z,11.70
2023-05-11T21:12:43.225Z,11.60
2023-05-11T21:15:11.719Z,11.60
2023-05-11T21:17:39.764Z,11.60
2023-05-11T21:20:10.847Z,11.60
2023-05-11T21:22:39.009Z,11.60
2023-05-11T21:25:07.867Z,11.60
2023-05-11T21:27:36.786Z,11.60
2023-05-11T21:30:05.739Z,11.60
2023-05-11T21:32:37.021Z,11.50
2023-05-11T21:35:05.293Z,11.50
2023-05-11T21:37:35.655Z,11.50
2023-05-11T21:40:03.873Z,11.50
2023-05-11T21:42:34.666Z,11.50
2023-05-11T21:45:03.114Z,11.50
2023-05-11T21:47:31.140Z,11.50
2023-05-11T21:49:59.207Z,11.50
2023-05-11T21:52:27.106Z,11.60
2023-05-11T21:54:56.356Z,11.50
2023-05-11T21:57:24.481Z,11.50
2023-05-11T21:59:52.422Z,11.60
2023-05-11T22:02:20.485Z,11.50
2023-05-11T22:04:48.776Z,11.50
2023-05-11T22:07:16.755Z,11.50
2023-05-11T22:09:45.002Z,11.60
2023-05-11T22:12:14.479Z,11.50
2023-05-11T22:14:42.430Z,11.50
2023-05-11T22:17:10.883Z,11.50
2023-05-11T22:19:40.170Z,11.50
2023-05-11T22:22:08.102Z,11.50
2023-05-11T22:24:36.077Z,11.50
2023-05-11T22:27:04.060Z,11.50
2023-05-11T22:29:33.469Z,11.50
2023-05-11T22:32:01.497Z,11.50
2023-05-11T22:34:29.500Z,11.50
2023-05-11T22:36:57.541Z,11.50
2023-05-11T22:39:25.434Z,11.50
2023-05-11T22:41:53.635Z,11.50
2023-05-11T22:44:21.746Z,11.50
2023-05-11T22:46:51.414Z,11.50
2023-05-11T22:49:19.326Z,11.50
2023-05-11T22:51:47.386Z,11.50
2023-05-11T22:54:16.006Z,11.50
2023-05-11T22:56:44.122Z,11.40
2023-05-11T22:59:12.552Z,11.50
2023-05-11T23:01:40.714Z,11.40
2023-05-11T23:04:10.200Z,11.40
2023-05-11T23:06:38.216Z,11.40
2023-05-11T23:09:06.362Z,11.40
2023-05-11T23:11:34.422Z,11.40
2023-05-11T23:14:03.548Z,11.40
2023-05-11T23:16:31.596Z,11.40
2023-05-11T23:19:01.915Z,11.40
2023-05-11T23:21:31.460Z,11.40
2023-05-11T23:23:59.645Z,11.30
2023-05-11T23:26:27.741Z,11.40
2023-05-11T23:28:55.731Z,11.40
2023-05-11T23:31:23.702Z,11.40
2023-05-11T23:33:51.805Z,11.30
2023-05-11T23:36:19.807Z,11.30
2023-05-11T23:38:49.143Z,11.30
2023-05-11T23:41:17.285Z,11.30
2023-05-11T23:43:45.517Z,11.30
2023-05-11T23:46:13.411Z,11.30
2023-05-11T23:48:41.418Z,11.20
2023-05-11T23:51:09.618Z,11.20
2023-05-11T23:53:38.203Z,11.20
2023-05-11T23:56:08.440Z,11.10
2023-05-11T23:58:36.425Z,11.10
